createdAt,value
2022-09-27T00:00:35.987Z,947.06
2022-09-27T00:01:35.961Z,947.03
2022-09-27T00:02:35.927Z,947.05
2022-09-27T00:03:35.810Z,947.03
2022-09-27T00:04:35.806Z,947.03
2022-09-27T00:05:35.705Z,947.09
2022-09-27T00:06:39.920Z,947.04
2022-09-27T00:07:35.590Z,947.01
2022-09-27T00:08:35.540Z,947.04
2022-09-27T00:09:35.487Z,946.97
2022-09-27T00:10:35.475Z,947.00
2022-09-27T00:11:35.389Z,947.06
2022-09-27T00:12:35.303Z,947.01
2022-09-27T00:13:35.270Z,946.94
2022-09-27T00:14:35.199Z,946.93
2022-09-27T00:15:35.189Z,946.97
2022-09-27T00:16:35.189Z,946.92
2022-09-27T00:17:35.051Z,946.90
2022-09-27T00:18:34.988Z,946.97
2022-09-27T00:19:34.938Z,946.86
2022-09-27T00:20:34.879Z,946.82
2022-09-27T00:21:34.879Z,946.86
2022-09-27T00:22:34.781Z,946.80
2022-09-27T00:23:34.750Z,946.84
2022-09-27T00:24:34.651Z,946.78
2022-09-27T00:25:34.607Z,946.79
2022-09-27T00:26:34.539Z,946.81
2022-09-27T00:27:34.527Z,946.84
2022-09-27T00:28:34.431Z,946.78
2022-09-27T00:29:34.390Z,946.80
2022-09-27T00:30:34.336Z,946.77
2022-09-27T00:31:34.269Z,946.76
2022-09-27T00:32:34.210Z,946.76
2022-09-27T00:33:34.194Z,946.74
2022-09-27T00:34:34.090Z,946.68
2022-09-27T00:35:34.035Z,946.75
2022-09-27T00:36:33.997Z,946.68
2022-09-27T00:37:33.912Z,946.65
2022-09-27T00:38:33.858Z,946.61
2022-09-27T00:39:33.850Z,946.63
2022-09-27T00:40:33.803Z,946.71
2022-09-27T00:41:33.719Z,946.58
2022-09-27T00:42:33.660Z,946.64
2022-09-27T00:43:33.600Z,946.60
2022-09-27T00:44:33.680Z,946.62
2022-09-27T00:45:33.494Z,946.65
2022-09-27T00:46:33.536Z,946.58
2022-09-27T00:47:33.385Z,946.56
2022-09-27T00:48:33.310Z,946.51
2022-09-27T00:49:33.307Z,946.50
2022-09-27T00:50:33.224Z,946.43
2022-09-27T00:51:33.168Z,946.41
2022-09-27T00:52:33.106Z,946.41
2022-09-27T00:53:33.057Z,946.42
2022-09-27T00:54:33.038Z,946.43
2022-09-27T00:55:32.956Z,946.40
2022-09-27T00:56:32.892Z,946.41
2022-09-27T00:57:32.829Z,946.45
2022-09-27T00:58:32.813Z,946.42
2022-09-27T00:59:32.730Z,946.42
2022-09-27T01:00:32.676Z,946.41
2022-09-27T01:01:32.712Z,946.41
2022-09-27T01:02:32.626Z,946.48
2022-09-27T01:03:32.478Z,946.40
2022-09-27T01:04:32.478Z,946.40
2022-09-27T01:05:32.386Z,946.37
2022-09-27T01:06:32.328Z,946.40
2022-09-27T01:07:32.263Z,946.38
2022-09-27T01:08:32.229Z,946.29
2022-09-27T01:09:32.172Z,946.31
2022-09-27T01:10:32.144Z,946.30
2022-09-27T01:11:32.061Z,946.28
2022-09-27T01:12:32.007Z,946.25
2022-09-27T01:13:31.931Z,946.27
2022-09-27T01:14:31.893Z,946.29
2022-09-27T01:15:31.893Z,946.31
2022-09-27T01:16:31.826Z,946.24
2022-09-27T01:17:31.721Z,946.25
2022-09-27T01:18:31.678Z,946.28
2022-09-27T01:19:31.603Z,946.24
2022-09-27T01:20:31.573Z,946.22
2022-09-27T01:21:31.508Z,946.26
2022-09-27T01:22:31.481Z,946.24
2022-09-27T01:23:31.396Z,946.21
2022-09-27T01:24:31.348Z,946.28
2022-09-27T01:25:31.280Z,946.18
2022-09-27T01:26:31.229Z,946.15
2022-09-27T01:27:31.170Z,946.22
2022-09-27T01:28:31.159Z,946.20
2022-09-27T01:29:31.065Z,946.19
2022-09-27T01:30:31.026Z,946.20
2022-09-27T01:31:31.022Z,946.13
2022-09-27T01:32:30.910Z,946.15
2022-09-27T01:33:30.875Z,946.13
2022-09-27T01:34:30.825Z,946.09
2022-09-27T01:35:30.733Z,946.14
2022-09-27T01:36:30.680Z,946.10
2022-09-27T01:37:30.626Z,946.13
2022-09-27T01:38:30.575Z,946.12
2022-09-27T01:39:30.547Z,946.08
2022-09-27T01:40:30.522Z,946.06
2022-09-27T01:41:30.400Z,946.12
2022-09-27T01:42:30.335Z,946.03
2022-09-27T01:43:30.291Z,946.04
2022-09-27T01:44:30.268Z,946.06
2022-09-27T01:45:30.185Z,946.06
2022-09-27T01:46:30.154Z,946.02
2022-09-27T01:47:30.081Z,946.07
2022-09-27T01:48:30.019Z,946.11
2022-09-27T01:49:29.961Z,946.12
2022-09-27T01:50:29.934Z,946.08
2022-09-27T01:51:29.856Z,946.06
2022-09-27T01:52:29.788Z,946.06
2022-09-27T01:53:29.739Z,946.03
2022-09-27T01:54:29.691Z,946.09
2022-09-27T01:55:29.660Z,946.04
2022-09-27T01:56:29.561Z,946.05
2022-09-27T01:57:29.526Z,946.03
2022-09-27T01:58:29.465Z,946.02
2022-09-27T01:59:29.418Z,946.00
2022-09-27T02:00:29.389Z,945.95
2022-09-27T02:01:29.339Z,945.95
2022-09-27T02:02:29.300Z,945.98
2022-09-27T02:03:29.191Z,945.96
2022-09-27T02:04:29.140Z,945.98
2022-09-27T02:05:29.115Z,945.96
2022-09-27T02:06:29.028Z,945.98
2022-09-27T02:07:28.974Z,945.96
2022-09-27T02:08:28.911Z,945.99
2022-09-27T02:09:28.860Z,945.91
2022-09-27T02:10:28.791Z,945.94
2022-09-27T02:11:28.786Z,945.92
2022-09-27T02:12:28.684Z,945.91
2022-09-27T02:13:28.647Z,945.95
2022-09-27T02:14:28.572Z,945.93
2022-09-27T02:15:28.538Z,945.91
2022-09-27T02:16:28.518Z,945.88
2022-09-27T02:17:28.420Z,945.90
2022-09-27T02:18:28.357Z,945.92
2022-09-27T02:19:28.311Z,945.88
2022-09-27T02:20:28.238Z,945.91
2022-09-27T02:21:28.227Z,945.92
2022-09-27T02:22:28.128Z,945.94
2022-09-27T02:23:28.087Z,945.96
2022-09-27T02:24:28.028Z,945.92
2022-09-27T02:25:27.981Z,945.94
2022-09-27T02:26:27.966Z,945.91
2022-09-27T02:27:27.873Z,945.94
2022-09-27T02:28:27.815Z,945.91
2022-09-27T02:29:27.957Z,945.99
2022-09-27T02:30:27.829Z,945.91
2022-09-27T02:31:27.732Z,945.89
2022-09-27T02:32:27.636Z,945.92
2022-09-27T02:33:27.553Z,945.89
2022-09-27T02:34:27.529Z,945.86
2022-09-27T02:35:27.477Z,945.91
2022-09-27T02:36:27.413Z,945.90
2022-09-27T02:37:27.375Z,945.91
2022-09-27T02:38:27.303Z,945.92
2022-09-27T02:39:27.250Z,945.94
2022-09-27T02:40:27.214Z,945.92
2022-09-27T02:41:27.130Z,945.89
2022-09-27T02:42:27.093Z,945.89
2022-09-27T02:43:27.004Z,945.94
2022-09-27T02:44:27.033Z,945.92
2022-09-27T02:45:26.905Z,945.94
2022-09-27T02:46:26.896Z,945.90
2022-09-27T02:47:26.793Z,945.93
2022-09-27T02:48:26.764Z,945.93
2022-09-27T02:49:26.679Z,945.95
2022-09-27T02:50:26.617Z,946.02
2022-09-27T02:51:26.579Z,945.98
2022-09-27T02:52:26.508Z,946.03
2022-09-27T02:53:26.456Z,946.00
2022-09-27T02:54:26.453Z,946.09
2022-09-27T02:55:26.387Z,946.04
2022-09-27T02:56:26.301Z,945.99
2022-09-27T02:57:26.238Z,946.00
2022-09-27T02:58:26.193Z,945.98
2022-09-27T02:59:26.143Z,945.97
2022-09-27T03:00:26.121Z,945.96
2022-09-27T03:01:26.081Z,945.95
2022-09-27T03:02:26.000Z,945.97
2022-09-27T03:03:25.906Z,945.97
2022-09-27T03:04:25.849Z,945.99
2022-09-27T03:05:25.806Z,945.98
2022-09-27T03:06:25.759Z,946.02
2022-09-27T03:07:25.673Z,945.99
2022-09-27T03:08:25.628Z,945.96
2022-09-27T03:09:25.571Z,945.92
2022-09-27T03:10:25.534Z,945.93
2022-09-27T03:11:25.513Z,945.93
2022-09-27T03:12:25.439Z,945.95
2022-09-27T03:13:25.381Z,945.94
2022-09-27T03:14:34.614Z,945.88
2022-09-27T03:15:25.217Z,945.91
2022-09-27T03:16:25.230Z,945.88
2022-09-27T03:17:25.131Z,945.95
2022-09-27T03:18:25.055Z,945.90
2022-09-27T03:19:24.994Z,945.93
2022-09-27T03:20:24.927Z,945.92
2022-09-27T03:21:24.898Z,945.90
2022-09-27T03:22:24.883Z,945.89
2022-09-27T03:23:24.783Z,945.93
2022-09-27T03:24:24.724Z,945.91
2022-09-27T03:25:24.666Z,945.90
2022-09-27T03:26:24.626Z,945.90
2022-09-27T03:27:24.561Z,945.93
2022-09-27T03:28:24.538Z,945.87
2022-09-27T03:29:24.449Z,945.89
2022-09-27T03:30:24.387Z,945.90
2022-09-27T03:31:24.449Z,945.87
2022-09-27T03:32:24.475Z,945.86
2022-09-27T03:33:24.223Z,945.84
2022-09-27T03:34:24.194Z,945.85
2022-09-27T03:35:24.171Z,945.85
2022-09-27T03:36:24.065Z,945.86
2022-09-27T03:37:24.010Z,945.83
2022-09-27T03:38:23.954Z,945.80
2022-09-27T03:39:23.952Z,945.83
2022-09-27T03:40:23.889Z,945.89
2022-09-27T03:41:23.769Z,945.80
2022-09-27T03:42:23.736Z,945.80
2022-09-27T03:43:23.682Z,945.81
2022-09-27T03:44:23.621Z,945.85
2022-09-27T03:45:23.597Z,945.82
2022-09-27T03:46:23.555Z,945.82
2022-09-27T03:47:23.453Z,945.79
2022-09-27T03:48:27.756Z,945.74
2022-09-27T03:49:23.344Z,945.77
2022-09-27T03:50:23.358Z,945.79
2022-09-27T03:51:23.263Z,945.74
2022-09-27T03:52:23.164Z,945.82
2022-09-27T03:53:23.135Z,945.73
2022-09-27T03:54:23.070Z,945.77
2022-09-27T03:55:23.015Z,945.75
2022-09-27T03:56:22.989Z,945.80
2022-09-27T03:57:22.903Z,945.74
2022-09-27T03:58:22.831Z,945.70
2022-09-27T03:59:22.803Z,945.72
2022-09-27T04:00:22.734Z,945.75
2022-09-27T04:01:22.754Z,945.76
2022-09-27T04:02:22.667Z,945.80
2022-09-27T04:03:22.578Z,945.79
2022-09-27T04:04:22.526Z,945.79
2022-09-27T04:05:22.474Z,945.77
2022-09-27T04:06:22.421Z,945.71
2022-09-27T04:07:22.404Z,945.72
2022-09-27T04:08:22.286Z,945.73
2022-09-27T04:09:22.244Z,945.69
2022-09-27T04:10:22.175Z,945.71
2022-09-27T04:11:22.145Z,945.75
2022-09-27T04:12:22.070Z,945.72
2022-09-27T04:13:22.061Z,945.74
2022-09-27T04:14:21.979Z,945.73
2022-09-27T04:15:21.918Z,945.79
2022-09-27T04:16:21.899Z,945.81
2022-09-27T04:17:21.806Z,945.74
2022-09-27T04:18:21.796Z,945.75
2022-09-27T04:19:21.685Z,945.77
2022-09-27T04:20:21.661Z,945.79
2022-09-27T04:21:21.600Z,945.76
2022-09-27T04:22:21.537Z,945.80
2022-09-27T04:23:21.490Z,945.80
2022-09-27T04:24:21.464Z,945.85
2022-09-27T04:25:21.365Z,945.85
2022-09-27T04:26:21.346Z,945.90
2022-09-27T04:27:21.270Z,945.86
2022-09-27T04:28:21.191Z,945.89
2022-09-27T04:29:21.182Z,945.82
2022-09-27T04:30:21.076Z,945.97
2022-09-27T04:31:21.097Z,945.90
2022-09-27T04:32:20.989Z,945.92
2022-09-27T04:33:20.927Z,945.93
2022-09-27T04:34:20.885Z,945.96
2022-09-27T04:35:20.863Z,945.98
2022-09-27T04:36:20.766Z,945.95
2022-09-27T04:37:20.706Z,946.01
2022-09-27T04:38:20.646Z,946.00
2022-09-27T04:39:20.598Z,945.98
2022-09-27T04:40:20.599Z,946.05
2022-09-27T04:41:20.514Z,946.04
2022-09-27T04:42:20.420Z,945.99
2022-09-27T04:43:20.382Z,946.06
2022-09-27T04:44:20.334Z,946.00
2022-09-27T04:45:20.254Z,946.10
2022-09-27T04:46:20.300Z,946.06
2022-09-27T04:47:20.145Z,946.04
2022-09-27T04:48:20.110Z,946.13
2022-09-27T04:49:20.190Z,946.08
2022-09-27T04:50:20.006Z,946.10
2022-09-27T04:51:19.934Z,946.15
2022-09-27T04:52:19.937Z,946.20
2022-09-27T04:53:19.883Z,946.16
2022-09-27T04:54:19.796Z,946.19
2022-09-27T04:55:19.731Z,946.17
2022-09-27T04:56:19.682Z,946.24
2022-09-27T04:57:19.650Z,946.22
2022-09-27T04:58:19.535Z,946.23
2022-09-27T04:59:19.538Z,946.26
2022-09-27T05:00:19.458Z,946.32
2022-09-27T05:01:19.478Z,946.29
2022-09-27T05:02:19.408Z,946.34
2022-09-27T05:03:19.351Z,946.32
2022-09-27T05:04:19.211Z,946.33
2022-09-27T05:05:19.169Z,946.36
2022-09-27T05:06:19.118Z,946.40
2022-09-27T05:07:19.061Z,946.37
2022-09-27T05:08:19.058Z,946.41
2022-09-27T05:09:18.943Z,946.40
2022-09-27T05:10:18.869Z,946.41
2022-09-27T05:11:18.843Z,946.41
2022-09-27T05:12:18.784Z,946.43
2022-09-27T05:13:18.723Z,946.46
2022-09-27T05:14:18.756Z,946.44
2022-09-27T05:15:18.620Z,946.46
2022-09-27T05:16:18.626Z,946.46
2022-09-27T05:17:18.510Z,946.51
2022-09-27T05:18:18.447Z,946.53
2022-09-27T05:19:18.428Z,946.53
2022-09-27T05:20:18.333Z,946.62
2022-09-27T05:21:18.293Z,946.59
2022-09-27T05:22:18.223Z,946.61
2022-09-27T05:23:18.186Z,946.64
2022-09-27T05:24:18.153Z,946.66
2022-09-27T05:25:18.069Z,946.68
2022-09-27T05:26:18.030Z,946.70
2022-09-27T05:27:17.969Z,946.71
2022-09-27T05:28:17.917Z,946.72
2022-09-27T05:29:17.844Z,946.73
2022-09-27T05:30:17.822Z,946.73
2022-09-27T05:31:17.802Z,946.73
2022-09-27T05:32:17.702Z,946.73
2022-09-27T05:33:17.640Z,946.75
2022-09-27T05:34:17.563Z,946.77
2022-09-27T05:35:17.550Z,946.74
2022-09-27T05:36:17.475Z,946.76
2022-09-27T05:37:17.406Z,946.77
2022-09-27T05:38:17.344Z,946.74
2022-09-27T05:39:17.435Z,946.75
2022-09-27T05:40:39.814Z,946.75
2022-09-27T05:41:17.315Z,946.79
2022-09-27T05:42:17.112Z,946.79
2022-09-27T05:43:17.720Z,946.81
2022-09-27T05:44:17.066Z,946.78
2022-09-27T05:45:16.992Z,946.81
2022-09-27T05:46:17.060Z,946.86
2022-09-27T05:47:16.886Z,946.89
2022-09-27T05:48:16.788Z,946.89
2022-09-27T05:49:16.743Z,946.88
2022-09-27T05:50:16.694Z,946.88
2022-09-27T05:51:16.647Z,946.89
2022-09-27T05:52:17.575Z,946.91
2022-09-27T05:53:16.527Z,946.91
2022-09-27T05:54:16.706Z,946.97
2022-09-27T05:55:16.429Z,946.93
2022-09-27T05:56:16.371Z,946.96
2022-09-27T05:57:16.306Z,946.96
2022-09-27T05:58:16.475Z,947.02
2022-09-27T05:59:16.203Z,947.03
2022-09-27T06:00:16.124Z,947.00
2022-09-27T06:01:16.130Z,947.02
2022-09-27T06:02:16.050Z,947.03
2022-09-27T06:03:16.003Z,947.02
2022-09-27T06:04:15.933Z,947.04
2022-09-27T06:05:15.868Z,947.05
2022-09-27T06:06:15.810Z,947.10
2022-09-27T06:07:15.765Z,947.06
2022-09-27T06:08:15.685Z,947.14
2022-09-27T06:09:15.867Z,947.12
2022-09-27T06:10:15.619Z,947.16
2022-09-27T06:11:15.544Z,947.17
2022-09-27T06:12:15.473Z,947.14
2022-09-27T06:13:15.428Z,947.18
2022-09-27T06:14:15.430Z,947.16
2022-09-27T06:15:15.321Z,947.16
2022-09-27T06:16:15.307Z,947.17
2022-09-27T06:17:15.205Z,947.17
2022-09-27T06:18:15.147Z,947.16
2022-09-27T06:19:15.375Z,947.24
2022-09-27T06:20:15.103Z,947.21
2022-09-27T06:21:14.989Z,947.22
2022-09-27T06:22:14.925Z,947.22
2022-09-27T06:23:14.878Z,947.26
2022-09-27T06:24:14.813Z,947.30
2022-09-27T06:25:14.764Z,947.32
2022-09-27T06:26:14.746Z,947.34
2022-09-27T06:27:14.658Z,947.31
2022-09-27T06:28:14.583Z,947.34
2022-09-27T06:29:14.673Z,947.33
2022-09-27T06:30:18.191Z,947.33
2022-09-27T06:31:14.523Z,947.36
2022-09-27T06:32:14.405Z,947.34
2022-09-27T06:33:14.327Z,947.37
2022-09-27T06:34:14.265Z,947.40
2022-09-27T06:35:14.198Z,947.39
2022-09-27T06:36:14.204Z,947.37
2022-09-27T06:37:14.135Z,947.42
2022-09-27T06:38:14.031Z,947.40
2022-09-27T06:39:13.987Z,947.39
2022-09-27T06:40:13.962Z,947.38
2022-09-27T06:41:13.893Z,947.41
2022-09-27T06:42:13.831Z,947.42
2022-09-27T06:43:13.814Z,947.42
2022-09-27T06:44:13.699Z,947.44
2022-09-27T06:45:13.673Z,947.44
2022-09-27T06:46:13.702Z,947.45
2022-09-27T06:47:13.559Z,947.43
2022-09-27T06:48:13.493Z,947.45
2022-09-27T06:49:13.547Z,947.42
2022-09-27T06:50:13.389Z,947.47
2022-09-27T06:51:13.346Z,947.42
2022-09-27T06:52:13.281Z,947.40
2022-09-27T06:53:13.221Z,947.47
2022-09-27T06:54:13.196Z,947.45
2022-09-27T06:55:13.094Z,947.48
2022-09-27T06:56:13.070Z,947.49
2022-09-27T06:57:12.994Z,947.50
2022-09-27T06:58:12.935Z,947.51
2022-09-27T06:59:13.061Z,947.50
2022-09-27T07:00:12.836Z,947.56
2022-09-27T07:01:12.819Z,947.58
2022-09-27T07:02:12.768Z,947.59
2022-09-27T07:03:12.659Z,947.60
2022-09-27T07:04:12.664Z,947.65
2022-09-27T07:05:12.565Z,947.66
2022-09-27T07:06:12.521Z,947.65
2022-09-27T07:07:12.445Z,947.74
2022-09-27T07:08:12.384Z,947.69
2022-09-27T07:09:12.384Z,947.73
2022-09-27T07:10:12.340Z,947.72
2022-09-27T07:11:12.233Z,947.79
2022-09-27T07:12:12.183Z,947.77
2022-09-27T07:13:12.114Z,947.81
2022-09-27T07:14:12.084Z,947.85
2022-09-27T07:15:12.012Z,947.90
2022-09-27T07:16:12.061Z,947.87
2022-09-27T07:17:11.891Z,947.91
2022-09-27T07:18:11.846Z,947.93
2022-09-27T07:19:11.798Z,947.95
2022-09-27T07:20:11.733Z,947.99
2022-09-27T07:21:11.694Z,948.00
2022-09-27T07:22:11.676Z,948.01
2022-09-27T07:23:11.562Z,948.03
2022-09-27T07:24:11.520Z,948.03
2022-09-27T07:25:11.468Z,948.07
2022-09-27T07:26:11.407Z,948.07
2022-09-27T07:27:11.353Z,948.11
2022-09-27T07:28:11.336Z,948.05
2022-09-27T07:29:11.309Z,948.12
2022-09-27T07:30:11.174Z,948.15
2022-09-27T07:31:11.173Z,948.15
2022-09-27T07:32:11.087Z,948.16
2022-09-27T07:33:11.014Z,948.19
2022-09-27T07:34:10.998Z,948.18
2022-09-27T07:35:10.916Z,948.20
2022-09-27T07:36:10.856Z,948.18
2022-09-27T07:37:10.793Z,948.21
2022-09-27T07:38:10.745Z,948.22
2022-09-27T07:39:10.731Z,948.22
2022-09-27T07:40:10.632Z,948.21
2022-09-27T07:41:10.575Z,948.26
2022-09-27T07:42:10.533Z,948.24
2022-09-27T07:43:10.471Z,948.15
2022-09-27T07:44:10.413Z,948.22
2022-09-27T07:45:10.394Z,948.24
2022-09-27T07:46:10.356Z,948.26
2022-09-27T07:47:10.235Z,948.23
2022-09-27T07:48:10.196Z,948.28
2022-09-27T07:49:10.141Z,948.30
2022-09-27T07:50:10.095Z,948.33
2022-09-27T07:51:10.066Z,948.33
2022-09-27T07:52:09.960Z,948.30
2022-09-27T07:53:09.908Z,948.37
2022-09-27T07:54:09.872Z,948.36
2022-09-27T07:55:09.788Z,948.33
2022-09-27T07:56:09.827Z,948.37
2022-09-27T07:57:09.689Z,948.40
2022-09-27T07:58:09.642Z,948.36
2022-09-27T07:59:09.632Z,948.37
2022-09-27T08:00:09.541Z,948.40
2022-09-27T08:01:09.563Z,948.39
2022-09-27T08:02:09.551Z,948.41
2022-09-27T08:03:09.375Z,948.41
2022-09-27T08:04:09.315Z,948.46
2022-09-27T08:05:09.268Z,948.49
2022-09-27T08:06:09.218Z,948.50
2022-09-27T08:07:11.279Z,948.48
2022-09-27T08:08:09.127Z,948.55
2022-09-27T08:09:09.073Z,948.52
2022-09-27T08:10:08.987Z,948.55
2022-09-27T08:11:08.948Z,948.53
2022-09-27T08:12:08.871Z,948.55
2022-09-27T08:13:08.860Z,948.56
2022-09-27T08:14:08.760Z,948.57
2022-09-27T08:15:08.721Z,948.57
2022-09-27T08:16:08.691Z,948.59
2022-09-27T08:17:08.606Z,948.63
2022-09-27T08:18:08.595Z,948.64
2022-09-27T08:19:08.546Z,948.63
2022-09-27T08:20:08.444Z,948.66
2022-09-27T08:21:08.401Z,948.68
2022-09-27T08:22:08.339Z,948.63
2022-09-27T08:23:08.289Z,948.64
2022-09-27T08:24:08.274Z,948.66
2022-09-27T08:25:08.184Z,948.74
2022-09-27T08:26:08.126Z,948.70
2022-09-27T08:27:11.490Z,948.74
2022-09-27T08:28:07.996Z,948.75
2022-09-27T08:29:08.092Z,948.73
2022-09-27T08:30:07.936Z,948.80
2022-09-27T08:31:07.863Z,948.75
2022-09-27T08:32:07.813Z,948.82
2022-09-27T08:33:07.743Z,948.87
2022-09-27T08:34:07.689Z,948.85
2022-09-27T08:35:07.636Z,948.87
2022-09-27T08:36:07.609Z,948.94
2022-09-27T08:37:07.498Z,948.89
2022-09-27T08:38:07.473Z,948.99
2022-09-27T08:39:07.423Z,948.98
2022-09-27T08:40:07.356Z,949.01
2022-09-27T08:41:07.414Z,949.02
2022-09-27T08:42:07.246Z,949.04
2022-09-27T08:43:07.196Z,949.02
2022-09-27T08:44:07.124Z,949.02
2022-09-27T08:45:07.088Z,949.06
2022-09-27T08:46:07.116Z,949.07
2022-09-27T08:47:07.012Z,949.02
2022-09-27T08:48:06.934Z,949.09
2022-09-27T08:49:06.866Z,949.12
2022-09-27T08:50:06.796Z,949.11
2022-09-27T08:51:06.764Z,949.06
2022-09-27T08:52:06.746Z,949.03
2022-09-27T08:53:06.645Z,949.07
2022-09-27T08:54:06.592Z,949.06
2022-09-27T08:55:06.559Z,949.11
2022-09-27T08:56:06.497Z,949.06
2022-09-27T08:57:06.459Z,949.11
2022-09-27T08:58:06.375Z,949.09
2022-09-27T08:59:06.325Z,949.06
2022-09-27T09:00:06.271Z,949.13
2022-09-27T09:01:06.294Z,949.11
2022-09-27T09:02:06.232Z,949.10
2022-09-27T09:03:06.103Z,949.12
2022-09-27T09:04:06.042Z,949.19
2022-09-27T09:05:05.990Z,949.22
2022-09-27T09:06:05.941Z,949.22
2022-09-27T09:07:05.874Z,949.16
2022-09-27T09:08:05.871Z,949.25
2022-09-27T09:09:05.778Z,949.31
2022-09-27T09:10:05.734Z,949.27
2022-09-27T09:11:05.692Z,949.24
2022-09-27T09:12:05.604Z,949.32
2022-09-27T09:13:05.593Z,949.32
2022-09-27T09:14:06.774Z,949.33
2022-09-27T09:15:05.457Z,949.30
2022-09-27T09:16:05.479Z,949.35
2022-09-27T09:17:05.343Z,949.37
2022-09-27T09:18:14.233Z,949.42
2022-09-27T09:19:05.415Z,949.42
2022-09-27T09:20:05.195Z,949.47
2022-09-27T09:21:05.147Z,949.46
2022-09-27T09:22:05.075Z,949.48
2022-09-27T09:23:05.005Z,949.48
2022-09-27T09:24:05.038Z,949.49
2022-09-27T09:25:04.910Z,949.50
2022-09-27T09:26:04.879Z,949.45
2022-09-27T09:27:04.817Z,949.49
2022-09-27T09:28:04.765Z,949.51
2022-09-27T09:29:04.743Z,949.54
2022-09-27T09:30:04.630Z,949.46
2022-09-27T09:31:04.600Z,949.52
2022-09-27T09:32:04.539Z,949.54
2022-09-27T09:33:04.495Z,949.54
2022-09-27T09:34:04.442Z,949.56
2022-09-27T09:35:04.406Z,949.54
2022-09-27T09:36:04.333Z,949.55
2022-09-27T09:37:04.247Z,949.60
2022-09-27T09:38:04.219Z,949.58
2022-09-27T09:39:04.173Z,949.57
2022-09-27T09:40:08.723Z,949.53
2022-09-27T09:41:04.054Z,949.58
2022-09-27T09:42:03.985Z,949.59
2022-09-27T09:43:03.960Z,949.66
2022-09-27T09:44:03.918Z,949.61
2022-09-27T09:45:03.839Z,949.65
2022-09-27T09:46:03.902Z,949.63
2022-09-27T09:47:03.732Z,949.61
2022-09-27T09:48:03.681Z,949.65
2022-09-27T09:49:03.621Z,949.69
2022-09-27T09:50:03.563Z,949.67
2022-09-27T09:51:03.566Z,949.64
2022-09-27T09:52:08.614Z,949.60
2022-09-27T09:53:03.445Z,949.62
2022-09-27T09:54:03.350Z,949.58
2022-09-27T09:55:03.401Z,949.57
2022-09-27T09:56:03.281Z,949.57
2022-09-27T09:57:03.232Z,949.66
2022-09-27T09:58:03.147Z,949.61
2022-09-27T09:59:03.111Z,949.55
2022-09-27T10:00:03.030Z,949.52
2022-09-27T10:01:03.057Z,949.54
2022-09-27T10:02:03.095Z,949.55
2022-09-27T10:03:02.890Z,949.53
2022-09-27T10:04:02.819Z,949.57
2022-09-27T10:05:07.658Z,949.64
2022-09-27T10:06:02.749Z,949.61
2022-09-27T10:07:02.707Z,949.58
2022-09-27T10:08:02.624Z,949.65
2022-09-27T10:09:02.585Z,949.64
2022-09-27T10:10:02.510Z,949.60
2022-09-27T10:11:02.472Z,949.62
2022-09-27T10:12:02.446Z,949.65
2022-09-27T10:13:02.349Z,949.73
2022-09-27T10:14:02.305Z,949.65
2022-09-27T10:15:02.307Z,949.69
2022-09-27T10:16:02.229Z,949.66
2022-09-27T10:17:02.159Z,949.68
2022-09-27T10:18:02.097Z,949.70
2022-09-27T10:19:02.019Z,949.63
2022-09-27T10:20:01.980Z,949.64
2022-09-27T10:21:01.941Z,949.68
2022-09-27T10:22:01.910Z,949.66
2022-09-27T10:23:01.813Z,949.68
2022-09-27T10:24:01.770Z,949.68
2022-09-27T10:25:01.719Z,949.75
2022-09-27T10:26:01.671Z,949.79
2022-09-27T10:27:01.620Z,949.72
2022-09-27T10:28:01.590Z,949.75
2022-09-27T10:29:01.498Z,949.73
2022-09-27T10:30:01.455Z,949.74
2022-09-27T10:31:01.409Z,949.80
2022-09-27T10:32:01.361Z,949.71
2022-09-27T10:33:01.294Z,949.77
2022-09-27T10:34:01.296Z,949.72
2022-09-27T10:35:01.179Z,949.83
2022-09-27T10:36:01.119Z,949.77
2022-09-27T10:37:01.078Z,949.83
2022-09-27T10:38:01.001Z,949.96
2022-09-27T10:39:00.978Z,949.80
2022-09-27T10:40:00.957Z,949.85
2022-09-27T10:41:00.984Z,949.83
2022-09-27T10:42:00.816Z,949.90
2022-09-27T10:43:00.767Z,949.84
2022-09-27T10:44:00.725Z,949.83
2022-09-27T10:45:00.692Z,949.84
2022-09-27T10:46:00.655Z,949.84
2022-09-27T10:47:00.565Z,949.88
2022-09-27T10:48:00.499Z,949.85
2022-09-27T10:49:00.445Z,949.90
2022-09-27T10:50:00.390Z,949.85
2022-09-27T10:51:00.421Z,949.92
2022-09-27T10:52:00.275Z,949.92
2022-09-27T10:53:00.229Z,949.90
2022-09-27T10:54:00.182Z,949.86
2022-09-27T10:55:00.142Z,949.84
2022-09-27T10:56:00.101Z,949.90
2022-09-27T10:57:00.032Z,949.83
2022-09-27T10:57:59.969Z,949.80
2022-09-27T10:58:59.918Z,949.74
2022-09-27T10:59:59.886Z,949.77
2022-09-27T11:00:59.893Z,949.76
2022-09-27T11:01:59.768Z,949.73
2022-09-27T11:02:59.711Z,949.71
2022-09-27T11:03:59.666Z,949.74
2022-09-27T11:04:59.619Z,949.78
2022-09-27T11:05:59.558Z,949.85
2022-09-27T11:06:59.543Z,949.82
2022-09-27T11:07:59.453Z,949.83
2022-09-27T11:08:59.406Z,949.85
2022-09-27T11:09:59.330Z,949.83
2022-09-27T11:10:59.328Z,949.83
2022-09-27T11:11:59.271Z,949.82
2022-09-27T11:12:59.188Z,949.80
2022-09-27T11:13:59.151Z,949.80
2022-09-27T11:14:59.069Z,949.80
2022-09-27T11:15:59.086Z,949.77
2022-09-27T11:16:59.009Z,949.78
2022-09-27T11:17:58.940Z,949.79
2022-09-27T11:18:58.866Z,949.78
2022-09-27T11:19:58.809Z,949.77
2022-09-27T11:20:58.789Z,949.76
2022-09-27T11:21:58.720Z,949.75
2022-09-27T11:22:58.704Z,949.78
2022-09-27T11:23:58.626Z,949.77
2022-09-27T11:24:58.554Z,949.74
2022-09-27T11:25:58.525Z,949.76
2022-09-27T11:26:58.466Z,949.76
2022-09-27T11:27:58.452Z,949.78
2022-09-27T11:28:58.429Z,949.75
2022-09-27T11:29:58.343Z,949.77
2022-09-27T11:30:58.308Z,949.79
2022-09-27T11:31:58.260Z,949.72
2022-09-27T11:32:58.159Z,949.75
2022-09-27T11:33:58.129Z,949.69
2022-09-27T11:34:58.051Z,949.71
2022-09-27T11:35:58.006Z,949.65
2022-09-27T11:36:57.949Z,949.65
2022-09-27T11:37:57.896Z,949.63
2022-09-27T11:39:02.343Z,949.67
2022-09-27T11:39:57.773Z,949.64
2022-09-27T11:40:57.806Z,949.62
2022-09-27T11:41:57.712Z,949.54
2022-09-27T11:42:57.631Z,949.59
2022-09-27T11:43:57.579Z,949.59
2022-09-27T11:45:19.983Z,949.59
2022-09-27T11:46:29.918Z,949.58
2022-09-27T11:46:57.569Z,949.58
2022-09-27T11:47:57.549Z,949.58
2022-09-27T11:48:57.302Z,949.52
2022-09-27T11:49:57.386Z,949.51
2022-09-27T11:50:57.219Z,949.49
2022-09-27T11:51:57.159Z,949.49
2022-09-27T11:52:57.128Z,949.47
2022-09-27T11:53:57.066Z,949.45
2022-09-27T11:54:56.974Z,949.45
2022-09-27T11:55:56.978Z,949.48
2022-09-27T11:56:56.901Z,949.44
2022-09-27T11:57:56.848Z,949.49
2022-09-27T11:58:56.806Z,949.48
2022-09-27T11:59:56.736Z,949.47
2022-09-27T12:00:56.748Z,949.45
2022-09-27T12:01:56.765Z,949.44
2022-09-27T12:02:56.650Z,949.46
2022-09-27T12:03:56.527Z,949.51
2022-09-27T12:04:56.487Z,949.46
2022-09-27T12:05:58.397Z,949.48
2022-09-27T12:06:56.408Z,949.51
2022-09-27T12:07:56.310Z,949.50
2022-09-27T12:08:56.275Z,949.52
2022-09-27T12:09:56.204Z,949.50
2022-09-27T12:10:56.176Z,949.51
2022-09-27T12:11:57.089Z,949.50
2022-09-27T12:12:56.059Z,949.54
2022-09-27T12:13:56.009Z,949.49
2022-09-27T12:14:55.961Z,949.60
2022-09-27T12:15:55.940Z,949.55
2022-09-27T12:16:55.848Z,949.57
2022-09-27T12:17:55.822Z,949.55
2022-09-27T12:18:55.729Z,949.56
2022-09-27T12:19:55.685Z,949.59
2022-09-27T12:20:55.649Z,949.53
2022-09-27T12:21:55.593Z,949.60
2022-09-27T12:23:00.265Z,949.58
2022-09-27T12:23:55.480Z,949.62
2022-09-27T12:24:55.438Z,949.58
2022-09-27T12:25:55.378Z,949.59
2022-09-27T12:26:55.325Z,949.60
2022-09-27T12:27:55.299Z,949.60